• Join FlightAware (Why Join?)
  • Login
  • US Flag 
08:50PM EDT


 

Airport Tracker/Info


-or-


 

Live Flight TrackerFlight Track Log ✈ VRD236 ✈ 18-Jul-2013 ✈ KLAX - KORD

Flight Track Log - Related Links

Times and Time Zones

All times are in EDT time to prevent confusion due to time zone crossing. See the VRD236 flight status page for this flight to view local times or setup timezone preferences in your user account.

Time Position Orientation Groundspeed Altitude Reporting Facility
EDT Latitude Longitude Course Direction KTS MPH feet Rate Location/Type
08:10PM 33.9460 -118.4410 263° West 147 169 1,200  Level FlightAware
08:10PM 33.9440 -118.4680 265° West 177 204 1,600 1,620 Climbing FlightAware
08:13PM 34.0699 -118.1623 48° Northeast  Level FlightAware Approximate
08:14PM 34.1419 -118.0495 59° Northeast  Level FlightAware Approximate
08:14PM 33.8200 -118.4940 59° Northeast 271 312 9,000  Level FlightAware
08:15PM 34.2033 -117.9269 59° Northeast  Level FlightAware Approximate
08:15PM 33.8780 -118.4620 25° Northeast 313 360 10,300  Level FlightAware
08:16PM 33.9420 -118.4230 27° Northeast 354 407 10,900 1,620 Climbing FlightAware
08:16PM 33.9780 -118.3620 55° Northeast 357 411 12,200 2,100 Climbing FlightAware
08:17PM 34.0140 -118.2900 59° Northeast 359 413 13,700 1,920 Climbing FlightAware
08:18PM 34.0520 -118.2220 56° Northeast 370 426 14,800 1,680 Climbing FlightAware
08:18PM 34.0870 -118.1610 55° Northeast 373 429 15,900 1,500 Climbing FlightAware
08:19PM 34.1290 -118.0870 56° Northeast 387 445 16,800 1,500 Climbing FlightAware
08:20PM 34.1750 -118.0070 55° Northeast 391 450 18,100 1,620 Climbing FlightAware
08:20PM 34.2150 -117.9360 56° Northeast 393 452 19,100 1,440 Climbing FlightAware
08:21PM 34.2580 -117.8590 56° Northeast 400 460 20,100 1,320 Climbing FlightAware
08:22PM 34.3050 -117.7750 56° Northeast 406 467 21,000 1,260 Climbing FlightAware
08:22PM 34.3460 -117.7010 56° Northeast 410 472 21,900 1,260 Climbing FlightAware
08:23PM 34.3850 -117.6320 56° Northeast 416 479 22,600 1,080 Climbing FlightAware
08:24PM 34.4320 -117.5460 56° Northeast 422 486 23,400 1,080 Climbing FlightAware
08:24PM 34.4780 -117.4640 56° Northeast 426 490 24,200 1,020 Climbing FlightAware
08:25PM 34.5130 -117.4020 56° Northeast 429 494 24,700 900 Climbing FlightAware
08:26PM 34.5640 -117.3100 56° Northeast 435 501 25,400 1,020 Climbing FlightAware
08:26PM 34.6080 -117.2280 57° Northeast 437 503 26,200 960 Climbing FlightAware
08:27PM 34.6630 -117.1470 50° Northeast 441 507 26,800 840 Climbing FlightAware
08:28PM 34.7200 -117.0700 48° Northeast 446 513 27,400 840 Climbing FlightAware
08:29PM 34.7780 -116.9910 48° Northeast 449 517 28,000 840 Climbing FlightAware
08:29PM 34.8340 -116.9150 48° Northeast 452 520 28,600 900 Climbing FlightAware
08:30PM 34.8890 -116.8390 49° Northeast 453 521 29,200 840 Climbing FlightAware
08:31PM 34.9460 -116.7610 48° Northeast 457 526 29,800 780 Climbing FlightAware
08:31PM 35.0050 -116.6790 49° Northeast 459 528 30,300 720 Climbing FlightAware
08:32PM 35.0520 -116.6150 48° Northeast 461 531 30,700 480 Climbing FlightAware
08:33PM 35.1270 -116.5120 48° Northeast 462 532 31,100 240 Climbing FlightAware
08:33PM 35.1700 -116.4520 49° Northeast 462 532 31,100  Level FlightAware
08:34PM 35.2290 -116.3730 48° Northeast 462 532 31,100  Level FlightAware
08:35PM 35.2720 -116.3130 49° Northeast 462 532 31,100 2,040 Level FlightAware
08:35PM 35.3590 -116.1860 50° Northeast 458 527 33,800 2,220 Climbing FlightAware
08:36PM 35.4230 -116.0960 49° Northeast 455 524 34,400 720 Climbing FlightAware
08:37PM 35.4780 -116.0190 49° Northeast 453 521 34,900 420 Climbing FlightAware
08:38PM 35.5340 -115.9410 49° Northeast 455 524 35,000 60 Climbing FlightAware
08:38PM 35.5880 -115.8640 49° Northeast 453 521 35,000  Level FlightAware
08:39PM 35.6430 -115.7860 49° Northeast 447 514 35,000  Level FlightAware
08:40PM 35.6970 -115.7080 50° Northeast 446 513 35,000  Level FlightAware
08:40PM 35.7530 -115.6300 48° Northeast 447 514 35,000  Level FlightAware
08:41PM 35.8040 -115.5570 49° Northeast 447 514 35,000  Level FlightAware
08:42PM 35.8640 -115.4720 49° Northeast 446 513 35,000  Level FlightAware
08:42PM 35.9250 -115.3840 49° Northeast 447 514 35,000  Level FlightAware
08:43PM 35.9790 -115.3070 49° Northeast 450 518 35,000  Level FlightAware
08:44PM 36.0320 -115.2290 50° Northeast 450 518 35,000  Level FlightAware
08:44PM 36.0820 -115.1570 49° Northeast 451 519 35,000  Level FlightAware
08:45PM 36.1320 -115.0670 55° Northeast 449 517 35,000  Level FlightAware
08:46PM 36.1780 -114.9840 56° Northeast 448 516 35,000  Level FlightAware
08:46PM 36.2300 -114.8910 55° Northeast 447 514 35,000  Level FlightAware
08:47PM 36.2760 -114.8080 55° Northeast 446 513 35,000  Level FlightAware
08:48PM 36.3260 -114.7170 56° Northeast 447 514 35,000  Level FlightAware
08:48PM 36.3730 -114.6330 55° Northeast 447 514 35,000  Level FlightAware
08:49PM 36.4260 -114.5360 56° Northeast 448 516 35,000  Level FlightAware
08:50PM 36.4740 -114.4500 55° Northeast 448 516 35,000  Level FlightAware
08:51PM 36.5240 -114.3570 56° Northeast 446 513 35,000  Level FlightAware
08:51PM 36.5730 -114.2680 56° Northeast 445 512 35,000  Level FlightAware
08:52PM 36.6230 -114.1750 56° Northeast 443 510 35,000  Level FlightAware
08:53PM 36.6700 -114.0900 55° Northeast 443 510 35,000  Level FlightAware
08:53PM 36.7090 -114.0180 56° Northeast 445 512 35,000  Level FlightAware
08:54PM 36.7590 -113.9250 56° Northeast 445 512 35,000  Level FlightAware
08:55PM 36.8050 -113.8400 56° Northeast 444 511 35,000  Level FlightAware
08:55PM 36.8500 -113.7560 56° Northeast 446 513 35,000  Level FlightAware
08:56PM 36.8970 -113.6690 56° Northeast 444 511 35,000  Level FlightAware
08:57PM 36.9500 -113.5700 56° Northeast 443 510 35,000  Level FlightAware
08:57PM 37.0000 -113.4750 57° Northeast 443 510 35,000  Level FlightAware
08:58PM 37.0470 -113.3880 56° Northeast 442 509 35,000  Level FlightAware
08:59PM 37.0910 -113.3030 57° Northeast 443 510 35,000  Level FlightAware
09:00PM 37.1390 -113.2130 56° Northeast 443 510 35,000  Level FlightAware
09:00PM 37.1900 -113.1160 57° Northeast 441 507 35,000  Level FlightAware
09:01PM 37.2360 -113.0300 56° Northeast 441 507 35,000  Level FlightAware
09:02PM 37.2730 -112.9580 57° Northeast 442 509 35,000  Level FlightAware
09:02PM 37.3240 -112.8630 56° Northeast 442 509 35,000  Level FlightAware
09:03PM 37.3830 -112.7500 57° Northeast 444 511 35,000  Level FlightAware
09:04PM 37.4300 -112.6620 56° Northeast 444 511 35,000  Level FlightAware
09:05PM 37.4650 -112.5960 56° Northeast 444 511 35,000  Level FlightAware
09:05PM 37.5120 -112.5090 56° Northeast 444 511 35,000  Level FlightAware
09:06PM 37.5470 -112.4430 56° Northeast 444 511 35,000  Level FlightAware
09:07PM 37.5940 -112.3560 56° Northeast 444 511 35,000  Level FlightAware
09:07PM 37.6290 -112.2900 56° Northeast 444 511 35,000  Level FlightAware
09:08PM 37.6880 -112.1800 56° Northeast 444 511 35,000  Level FlightAware
09:09PM 37.7720 -111.9930 60° Northeast 441 507 35,000  Level FlightAware
09:10PM 37.8180 -111.9030 57° Northeast 442 509 35,000  Level FlightAware
09:10PM 37.8620 -111.8170 57° Northeast 441 507 35,000  Level FlightAware
09:12PM 37.9510 -111.6410 57° Northeast 441 507 35,000  Level FlightAware
09:13PM 38.0250 -111.4930 58° Northeast 439 505 35,000  Level FlightAware
09:13PM 38.0690 -111.4050 58° Northeast 439 505 35,000  Level FlightAware
09:14PM 38.1280 -111.2870 58° Northeast 439 505 35,000  Level FlightAware
09:15PM 38.1670 -111.2090 58° Northeast 440 506 35,000  Level FlightAware
09:16PM 38.2140 -111.1120 58° Northeast 441 507 35,000  Level FlightAware
09:16PM 38.2520 -111.0370 57° Northeast 442 509 35,000  Level FlightAware
09:17PM 38.2990 -110.9410 58° Northeast 444 511 35,000  Level FlightAware
09:18PM 38.3520 -110.8340 58° Northeast 445 512 35,000  Level FlightAware
09:18PM 38.3920 -110.7530 58° Northeast 445 512 35,000  Level FlightAware
09:19PM 38.4470 -110.6520 55° Northeast 444 511 35,000  Level FlightAware
09:20PM 38.4920 -110.5800 51° Northeast 442 509 35,000  Level FlightAware
09:20PM 38.5440 -110.4960 52° Northeast 442 509 35,000  Level FlightAware
09:21PM 38.5940 -110.4140 52° Northeast 440 506 35,000  Level FlightAware
09:22PM 38.6460 -110.3300 52° Northeast 441 507 35,000  Level FlightAware
09:23PM 38.7010 -110.2400 52° Northeast 441 507 35,000  Level FlightAware
09:23PM 38.7560 -110.1500 52° Northeast 440 506 35,000  Level FlightAware
09:24PM 38.8060 -110.0670 52° Northeast 439 505 35,000  Level FlightAware
09:25PM 38.8610 -109.9770 52° Northeast 441 507 35,000  Level FlightAware
09:25PM 38.9100 -109.8970 52° Northeast 442 509 35,000  Level FlightAware
09:26PM 38.9690 -109.8000 52° Northeast 439 505 35,000  Level FlightAware
09:27PM 39.0180 -109.7180 52° Northeast 439 505 35,000  Level FlightAware
09:27PM 39.0680 -109.6350 52° Northeast 440 506 35,000  Level FlightAware
09:28PM 39.1230 -109.5430 52° Northeast 442 509 35,000  Level FlightAware
09:29PM 39.1700 -109.4650 52° Northeast 446 513 35,000  Level FlightAware
09:30PM 39.2270 -109.3700 52° Northeast 449 517 35,000 60 Level FlightAware
09:30PM 39.2850 -109.2730 52° Northeast 449 517 35,100 60 Climbing FlightAware
09:31PM 39.3340 -109.1890 53° Northeast 446 513 35,100 -120 Level FlightAware
09:32PM 39.3830 -109.1070 52° Northeast 444 511 35,000 -120 Descending FlightAware
09:32PM 39.4400 -109.0100 53° Northeast 443 510 35,000  Level FlightAware
09:33PM 39.4820 -108.9380 53° Northeast 442 509 35,000  Level FlightAware
09:34PM 39.5470 -108.8280 53° Northeast 446 513 35,000  Level FlightAware
09:35PM 39.5950 -108.7450 53° Northeast 447 514 35,000  Level FlightAware
09:35PM 39.6460 -108.6580 53° Northeast 447 514 35,000  Level FlightAware
09:36PM 39.6980 -108.5690 53° Northeast 447 514 35,000 60 Level FlightAware
09:37PM 39.7430 -108.4910 53° Northeast 445 512 35,100  Climbing FlightAware
09:37PM 39.7940 -108.4020 53° Northeast 442 509 35,000 -120 Descending FlightAware
09:38PM 39.8460 -108.3130 53° Northeast 444 511 35,000  Level FlightAware
09:39PM 39.8990 -108.2210 53° Northeast 449 517 35,000  Level FlightAware
09:39PM 39.9500 -108.1330 53° Northeast 452 520 35,000 60 Level FlightAware
09:40PM 40.0060 -108.0350 53° Northeast 453 521 35,100 60 Climbing FlightAware
09:41PM 40.0570 -107.9430 54° Northeast 449 517 35,100 -120 Level FlightAware
09:41PM 40.0980 -107.8480 61° Northeast 448 516 35,000 -120 Descending FlightAware
09:42PM 40.1370 -107.7450 64° Northeast 447 514 35,000  Level FlightAware
09:43PM 40.1740 -107.6460 64° Northeast 449 517 35,000  Level FlightAware
09:43PM 40.2120 -107.5460 64° Northeast 451 519 35,000  Level FlightAware
09:44PM 40.2530 -107.4380 64° Northeast 451 519 35,000  Level FlightAware
09:45PM 40.2860 -107.3510 64° Northeast 451 519 35,000  Level FlightAware
09:46PM 40.3310 -107.2310 64° Northeast 449 517 35,000  Level FlightAware
09:46PM 40.3660 -107.1360 64° Northeast 448 516 35,000  Level FlightAware
09:47PM 40.3991 -107.0470 64° Northeast 448 516 35,000  Level FlightAware ADS-B
09:48PM 40.4420 -106.9310 64° Northeast 448 516 35,000  Level FlightAware
09:48PM 40.4830 -106.8210 64° Northeast 447 514 35,000 60 Level FlightAware
09:49PM 40.5190 -106.7230 64° Northeast 445 512 35,100  Climbing FlightAware
09:50PM 40.5590 -106.6150 64° Northeast 444 511 35,000 -120 Descending FlightAware
09:50PM 40.5930 -106.5210 65° Northeast 444 511 35,000  Level FlightAware
09:51PM 40.6300 -106.4210 64° Northeast 446 513 35,000  Level FlightAware
09:52PM 40.6670 -106.3180 65° Northeast 446 513 35,000  Level FlightAware
09:52PM 40.6990 -106.2290 65° Northeast 448 516 35,000  Level FlightAware
09:53PM 40.7360 -106.1260 65° Northeast 450 518 35,000  Level FlightAware
09:54PM 40.7720 -106.0260 65° Northeast 450 518 35,000  Level FlightAware
09:55PM 40.8130 -105.9110 65° Northeast 452 520 35,000  Level FlightAware
09:55PM 40.8490 -105.8120 64° Northeast 451 519 35,000  Level FlightAware
09:56PM 40.8880 -105.7010 65° Northeast 452 520 35,000 60 Level FlightAware
09:57PM 40.9230 -105.6030 65° Northeast 451 519 35,100 60 Climbing FlightAware
09:57PM 40.9490 -105.5290 65° Northeast 449 517 35,100 -120 Level FlightAware
09:58PM 40.9900 -105.4110 65° Northeast 445 512 35,000 -60 Descending FlightAware
09:59PM 41.0520 -105.2370 65° Northeast 442 509 35,000  Level FlightAware
10:00PM 41.0992 -105.0990 66° East 442 509 35,000  Level FlightAware ADS-B
10:01PM 41.1253 -105.0240 65° Northeast 444 511 35,000  Level FlightAware ADS-B
10:01PM 41.1518 -104.9470 65° Northeast 447 514 35,000  Level FlightAware ADS-B
10:02PM 41.2032 -104.7950 66° East 450 518 35,000 60 Level FlightAware ADS-B
10:02PM 41.2179 -104.7370 71° East 454 522 35,100 60 Climbing FlightAware ADS-B
10:03PM 41.2345 -104.6490 76° East 455 524 35,100 -120 Level FlightAware ADS-B
10:03PM 41.2495 -104.5650 77° East 456 525 35,000  Descending FlightAware ADS-B
10:04PM 41.2648 -104.4790 77° East 458 527 35,100 480 Climbing FlightAware ADS-B
10:05PM 41.2798 -104.3960 76° East 461 531 35,500 600 Climbing FlightAware ADS-B
10:05PM 41.2891 -104.3440 77° East 464 534 35,600 360 Climbing FlightAware ADS-B
10:05PM 41.2934 -104.3090 81° East 464 534 35,700 720 Climbing FlightAware ADS-B
10:05PM 41.2973 -104.2570 84° East 465 535 36,000 900 Climbing FlightAware ADS-B
10:06PM 41.2983 -104.2180 88° East 465 535 36,200 780 Climbing FlightAware ADS-B
10:06PM 41.2975 -104.1730 91° East 463 533 36,400 780 Climbing FlightAware ADS-B
10:06PM 41.2930 -104.0880 94° East 463 533 36,800 480 Climbing FlightAware ADS-B
10:07PM 41.2886 -104.0010 94° East 467 537 36,900 180 Climbing FlightAware ADS-B
10:07PM 41.2843 -103.9140 94° East 473 544 37,000 60 Climbing FlightAware ADS-B
10:08PM 41.2795 -103.8240 94° East 478 550 37,000  Level FlightAware ADS-B
10:08PM 41.2747 -103.7390 94° East 480 552 37,000  Level FlightAware ADS-B
10:09PM 41.2702 -103.6460 94° East 479 551 37,000  Level FlightAware ADS-B
10:09PM 41.2657 -103.5570 94° East 478 550 37,000  Level FlightAware ADS-B
10:10PM 41.2644 -103.5170 92° East 480 552 37,000  Level FlightAware ADS-B
10:10PM 41.2660 -103.4790 87° East 480 552 37,000  Level FlightAware ADS-B
10:10PM 41.2717 -103.4410 79° East 475 547 37,000  Level FlightAware ADS-B
10:11PM 41.2882 -103.3560 75° East 472 543 37,000  Level FlightAware ADS-B
10:11PM 41.3051 -103.2650 76° East 471 542 37,000  Level FlightAware ADS-B
10:12PM 41.3210 -103.1790 76° East 476 548 37,000  Level FlightAware ADS-B
10:12PM 41.3372 -103.0920 76° East 482 555 37,000  Level FlightAware ADS-B
10:13PM 41.3563 -102.9900 76° East 481 554 37,000  Level FlightAware ADS-B
10:13PM 41.3721 -102.9040 76° East 478 550 37,000  Level FlightAware ADS-B
10:14PM 41.3880 -102.8180 76° East 477 549 37,000  Level FlightAware ADS-B
10:15PM 41.4128 -102.6830 76° East 478 550 37,000  Level FlightAware ADS-B
10:15PM 41.4287 -102.5960 76° East 473 544 37,000  Level FlightAware ADS-B
10:16PM 41.4445 -102.5090 76° East 478 550 37,000  Level FlightAware ADS-B
10:16PM 41.4603 -102.4220 76° East 478 550 37,000  Level FlightAware ADS-B
10:17PM 41.4757 -102.3360 77° East 475 547 37,000  Level FlightAware ADS-B
10:17PM 41.4907 -102.2510 77° East 476 548 37,000  Level FlightAware ADS-B
10:18PM 41.5068 -102.1620 76° East 476 548 37,000  Level FlightAware ADS-B
10:18PM 41.5226 -102.0730 77° East 476 548 37,000  Level FlightAware ADS-B
10:19PM 41.5378 -101.9870 77° East 474 545 37,000  Level FlightAware ADS-B
10:19PM 41.5529 -101.9000 77° East 474 545 37,000  Level FlightAware ADS-B
10:20PM 41.5693 -101.8060 77° East 473 544 37,000  Level FlightAware ADS-B
10:20PM 41.5847 -101.7180 77° East 472 543 37,000  Level FlightAware ADS-B
10:21PM 41.6005 -101.6260 77° East 473 544 37,000  Level FlightAware ADS-B
10:21PM 41.6151 -101.5410 77° East 471 542 37,000  Level FlightAware ADS-B
10:22PM 41.6298 -101.4550 77° East 471 542 37,000  Level FlightAware ADS-B
10:22PM 41.6442 -101.3700 77° East 473 544 37,000  Level FlightAware ADS-B
10:23PM 41.6598 -101.2780 77° East 473 544 37,000  Level FlightAware ADS-B
10:23PM 41.6785 -101.1680 77° East 472 543 37,000  Level FlightAware ADS-B
10:24PM 41.6929 -101.0820 77° East 471 542 37,000  Level FlightAware ADS-B
10:25PM 41.7194 -100.9239 77° East 470 541 37,000  Level Denver Center
10:31PM 41.8849 -99.8936 77° East 467 537 37,000  Level FlightAware ADS-B
10:31PM 41.8982 -99.8079 78° East 468 539 37,000  Level FlightAware ADS-B
10:32PM 41.9115 -99.7223 78° East 472 543 37,000  Level FlightAware ADS-B
10:32PM 41.9252 -99.6332 78° East 473 544 37,000  Level FlightAware ADS-B
10:33PM 41.9519 -99.4591 78° East 472 543 37,000  Level FlightAware ADS-B
10:34PM 41.9649 -99.3728 79° East 470 541 37,000  Level FlightAware ADS-B
10:34PM 41.9778 -99.2865 79° East 469 540 37,000  Level FlightAware ADS-B
10:35PM 41.9908 -99.1996 79° East 469 540 37,000  Level FlightAware ADS-B
10:35PM 42.0035 -99.1139 79° East 469 540 37,000  Level FlightAware ADS-B
10:36PM 42.0167 -99.0244 79° East 470 541 37,000  Level FlightAware ADS-B
10:38PM 42.0757 -98.6202 79° East 472 543 37,000  Level FlightAware ADS-B
10:39PM 42.0814 -98.5784 80° East 471 542 37,000  Level FlightAware ADS-B
10:39PM 42.0900 -98.4913 82° East 476 548 37,000  Level FlightAware ADS-B
10:40PM 42.0977 -98.4024 83° East 476 548 37,000  Level FlightAware ADS-B
10:40PM 42.1058 -98.3129 83° East 476 548 37,000  Level FlightAware ADS-B
10:41PM 42.1142 -98.2242 83° East 476 548 37,000  Level FlightAware ADS-B
10:41PM 42.1227 -98.1338 83° East 474 545 37,000  Level FlightAware ADS-B
10:42PM 42.1307 -98.0461 83° East 472 543 37,000  Level FlightAware ADS-B
10:42PM 42.1393 -97.9520 83° East 473 544 37,000  Level FlightAware ADS-B
10:43PM 42.1473 -97.8642 83° East 473 544 37,000  Level FlightAware ADS-B
10:43PM 42.1553 -97.7744 83° East 474 545 37,000  Level FlightAware ADS-B
10:44PM 42.1634 -97.6858 83° East 473 544 37,000  Level FlightAware ADS-B
10:44PM 42.1713 -97.5980 83° East 473 544 37,000  Level FlightAware ADS-B
10:45PM 42.1790 -97.5090 83° East 473 544 37,000  Level FlightAware ADS-B
10:45PM 42.1867 -97.4210 83° East 473 544 37,000  Level FlightAware ADS-B
10:46PM 42.1943 -97.3327 83° East 473 544 37,000  Level FlightAware ADS-B
10:46PM 42.2019 -97.2436 83° East 472 543 37,000  Level FlightAware ADS-B
10:47PM 42.2094 -97.1553 83° East 472 543 37,000  Level FlightAware ADS-B
10:47PM 42.2168 -97.0681 83° East 472 543 37,000  Level FlightAware ADS-B
10:48PM 42.2242 -96.9792 84° East 472 543 37,000  Level FlightAware ADS-B
10:48PM 42.2319 -96.8852 84° East 471 542 37,000  Level FlightAware ADS-B
10:49PM 42.2391 -96.7972 84° East 470 541 37,000  Level FlightAware ADS-B
10:49PM 42.2463 -96.7087 84° East 469 540 37,000  Level FlightAware ADS-B
10:50PM 42.2531 -96.6221 84° East 468 539 37,000  Level FlightAware ADS-B
10:50PM 42.2600 -96.5337 84° East 469 540 37,000  Level FlightAware ADS-B
10:51PM 42.2670 -96.4445 84° East 470 541 37,000  Level FlightAware ADS-B
10:51PM 42.2740 -96.3547 84° East 469 540 37,000  Level FlightAware ADS-B
10:52PM 42.2807 -96.2681 84° East 468 539 37,000  Level FlightAware ADS-B
10:52PM 42.2874 -96.1807 84° East 467 537 37,000  Level FlightAware ADS-B
10:53PM 42.2946 -96.0861 84° East 466 536 37,000  Level FlightAware ADS-B
10:53PM 42.3012 -95.9985 84° East 465 535 37,000  Level FlightAware ADS-B
10:54PM 42.3076 -95.9106 84° East 465 535 37,000  Level FlightAware ADS-B
10:54PM 42.3140 -95.8232 84° East 465 535 37,000  Level FlightAware ADS-B
10:55PM 42.3208 -95.7297 84° East 465 535 37,000  Level FlightAware ADS-B
10:55PM 42.3270 -95.6417 85° East 465 535 37,000  Level FlightAware ADS-B
10:56PM 42.3332 -95.5538 85° East 465 535 37,000  Level FlightAware ADS-B
10:56PM 42.3392 -95.4668 85° East 466 536 37,000  Level FlightAware ADS-B
10:57PM 42.3455 -95.3761 85° East 466 536 37,000  Level FlightAware ADS-B
10:57PM 42.3513 -95.2897 85° East 467 537 37,000  Level FlightAware ADS-B
10:58PM 42.3574 -95.2000 85° East 467 537 37,000  Level FlightAware ADS-B
10:58PM 42.3632 -95.1127 85° East 468 539 37,000  Level FlightAware ADS-B
10:59PM 42.3690 -95.0249 85° East 467 537 37,000  Level FlightAware ADS-B
11:00PM 42.3777 -94.8883 85° East 467 537 37,000  Level FlightAware ADS-B
11:00PM 42.3834 -94.7995 85° East 466 536 37,000  Level FlightAware ADS-B
11:01PM 42.3890 -94.7125 85° East 465 535 37,000  Level FlightAware ADS-B
11:01PM 42.3952 -94.6144 85° East 465 535 37,000  Level FlightAware ADS-B
11:02PM 42.4006 -94.5270 85° East 465 535 37,000  Level FlightAware ADS-B
11:02PM 42.4057 -94.4425 85° East 465 535 37,000  Level FlightAware ADS-B
11:03PM 42.4119 -94.3380 85° East 463 533 37,000  Level FlightAware ADS-B
11:03PM 42.4171 -94.2506 85° East 463 533 37,000  Level FlightAware ADS-B
11:04PM 42.4222 -94.1623 85° East 462 532 37,000  Level FlightAware ADS-B
11:04PM 42.4273 -94.0744 85° East 463 533 37,000  Level FlightAware ADS-B
11:05PM 42.4322 -93.9852 86° East 464 534 37,000  Level FlightAware ADS-B
11:05PM 42.4371 -93.8982 86° East 465 535 37,000  Level FlightAware ADS-B
11:06PM 42.4422 -93.8074 86° East 465 535 37,000  Level FlightAware ADS-B
11:06PM 42.4470 -93.7204 86° East 465 535 37,000  Level FlightAware ADS-B
11:07PM 42.4550 -93.5790 86° East 464 534 37,000  Level FlightAware
11:08PM 42.4610 -93.4530 86° East 463 533 37,000  Level FlightAware
11:09PM 42.4670 -93.3410 86° East 464 534 37,000  Level FlightAware
11:09PM 42.4720 -93.2350 86° East 464 534 37,000  Level FlightAware
11:10PM 42.4780 -93.1110 86° East 463 533 37,000  Level FlightAware
11:13PM 42.4880 -92.9130 86° East 461 531 37,000  Level FlightAware
11:14PM 42.5080 -92.4470 87° East 463 533 37,000  Level FlightAware
11:14PM 42.5130 -92.3430 86° East 463 533 37,000  Level FlightAware
11:15PM 42.5190 -92.2020 87° East 464 534 37,000  Level FlightAware
11:16PM 42.5230 -92.0860 87° East 465 535 37,000  Level FlightAware
11:17PM 42.5260 -91.9580 88° East 467 537 37,000  Level FlightAware
11:17PM 42.5260 -91.8470 90° East 466 536 37,000  Level FlightAware
11:18PM 42.5260 -91.7220 90° East 465 535 37,000  Level FlightAware
11:19PM 42.5270 -91.5950 89° East 464 534 37,000  Level FlightAware
11:19PM 42.5280 -91.4750 89° East 463 533 37,000 -180 Level FlightAware
11:20PM 42.5280 -91.3480 90° East 464 534 36,800 -600 Descending FlightAware
11:21PM 42.5280 -91.2400 90° East 467 537 36,200 -960 Descending FlightAware
11:22PM 42.5280 -91.1030 90° East 470 541 35,500 -960 Descending FlightAware
11:22PM 42.5280 -90.9810 90° East 473 544 34,800 -960 Descending FlightAware
11:23PM 42.5270 -90.8600 91° East 473 544 34,200 -960 Descending FlightAware
11:24PM 42.5270 -90.7300 90° East 475 547 33,500 -1,020 Descending FlightAware
11:24PM 42.5260 -90.6110 91° East 478 550 32,800 -1,020 Descending FlightAware
11:25PM 42.5250 -90.4800 91° East 482 555 32,100 -1,080 Descending FlightAware
11:26PM 42.5250 -90.3450 90° East 486 559 31,200 -1,500 Descending FlightAware
11:26PM 42.5240 -90.2250 91° East 488 562 30,000 -2,280 Descending FlightAware
11:27PM 42.5230 -90.1150 91° East 479 551 28,400 -3,360 Descending FlightAware
11:28PM 42.5220 -89.9960 91° East 486 559 25,800 -3,300 Descending FlightAware
11:28PM 42.5120 -89.8650 96° East 475 547 23,800 -2,280 Descending FlightAware
11:29PM 42.5010 -89.7460 97° East 467 537 22,600 -1,380 Descending FlightAware
11:30PM 42.4890 -89.6230 97° East 455 524 21,900 -960 Descending FlightAware
11:31PM 42.4790 -89.5100 97° East 454 522 21,300 -1,080 Descending FlightAware
11:31PM 42.4660 -89.3840 98° East 456 525 20,400 -1,680 Descending FlightAware
11:32PM 42.4570 -89.2890 97° East 445 512 19,200 -2,160 Descending FlightAware
11:33PM 42.4460 -89.1750 97° East 426 490 17,700 -2,220 Descending FlightAware
11:33PM 42.4350 -89.0660 98° East 421 484 16,100 -2,160 Descending FlightAware
11:34PM 42.4250 -88.9680 98° East 416 479 14,800 -1,980 Descending FlightAware
11:34PM 42.4150 -88.8700 98° East 408 470 13,600 -1,800 Descending FlightAware
11:35PM 42.4040 -88.7620 98° East 384 442 12,400 -1,860 Descending FlightAware
11:36PM 42.3940 -88.6670 98° East 384 442 11,000 -1,740 Descending FlightAware
11:37PM 42.3640 -88.5730 113° Southeast 373 429 10,000 -1,200 Descending FlightAware
11:37PM 42.3520 -88.5510 126° Southeast 373 429 9,900  Descending FlightAware
11:37PM 42.3240 -88.4980 126° Southeast 371 427 10,000 60 Climbing FlightAware
11:38PM 42.2940 -88.4430 126° Southeast 371 427 10,000  Level FlightAware
11:38PM 42.2660 -88.3930 127° Southeast 371 427 10,000  Level FlightAware
11:38PM 42.2490 -88.3630 127° Southeast 370 426 10,000 -180 Level FlightAware
11:39PM 42.2250 -88.3210 128° Southeast 362 417 9,900  Descending FlightAware
11:39PM 42.2010 -88.2780 127° Southeast 331 381 10,000 -240 Climbing FlightAware
11:40PM 42.1760 -88.2340 127° Southeast 312 359 9,700 -780 Descending FlightAware
11:40PM 42.1660 -88.2160 127° Southeast 308 354 9,500 -1,440 Descending FlightAware
11:40PM 42.1400 -88.1710 128° Southeast 305 351 8,700 -1,620 Descending FlightAware
11:41PM 42.1260 -88.1460 127° Southeast 304 350 8,300 -1,680 Descending FlightAware
11:41PM 42.1150 -88.1120 114° Southeast 309 356 7,700 -1,560 Descending FlightAware
11:42PM 42.1050 -88.0560 104° East 306 352 7,000 -1,080 Descending FlightAware
11:42PM 42.1010 -88.0370 106° East 298 343 7,000  Level FlightAware
11:42PM 42.0910 -87.9860 105° East 271 312 7,000  Level FlightAware
11:43PM 42.0830 -87.9410 103° East 260 299 7,000  Level FlightAware
11:43PM 42.0770 -87.9110 105° East 260 299 7,000  Level FlightAware
11:43PM 42.0750 -87.8850 96° East 255 293 7,000 -300 Level FlightAware
11:44PM 42.0770 -87.8460 86° East 235 270 6,800 -900 Descending FlightAware
11:44PM 42.0790 -87.8060 86° East 227 261 6,200 -1,260 Descending FlightAware
11:45PM 42.0820 -87.7640 84° East 224 258 5,600 -1,320 Descending FlightAware
11:45PM 42.0840 -87.7270 86° East 227 261 5,000 -1,320 Descending FlightAware
11:46PM 42.0860 -87.6850 86° East 224 258 4,400 -1,080 Descending FlightAware
11:46PM 42.0880 -87.6500 86° East 222 255 4,000 -360 Descending FlightAware
11:47PM 42.0760 -87.5980 107° East 202 232 4,000  Level FlightAware
11:47PM 42.0670 -87.5940 162° South 191 220 4,000  Level FlightAware
11:47PM 42.0430 -87.5880 169° South 186 214 4,000  Level FlightAware
11:48PM 42.0220 -87.5830 170° South 187 215 4,000  Level FlightAware
11:48PM 41.9990 -87.5780 171° South 188 216 4,000  Level FlightAware
11:48PM 41.9900 -87.5760 171° South 187 215 4,000  Level FlightAware
11:49PM 41.9720 -87.5950 218° Southwest 171 197 4,000  Level FlightAware
11:49PM 41.9700 -87.6100 260° West 171 197 4,000  Level FlightAware
11:49PM 41.9690 -87.6250 265° West 173 199 4,000 -480 Level FlightAware
11:50PM 41.9690 -87.6540 270° West 175 201 3,700 -720 Descending FlightAware
11:50PM 41.9690 -87.6810 270° West 172 198 3,400 -840 Descending FlightAware
11:51PM 41.9690 -87.7150 270° West 171 197 2,900 -900 Descending FlightAware
11:51PM 41.9690 -87.7320 270° West 171 197 2,700 -900 Descending FlightAware
11:51PM 41.9690 -87.7520 270° West 170 196 2,400 -900 Descending FlightAware
11:52PM 41.9690 -87.7870 270° West 159 183 1,900 -840 Descending FlightAware
11:53PM 41.9690 -87.8250 270° West 131 151 1,400 -720 Descending FlightAware
11:53PM 41.9690 -87.8490 270° West 132 152 1,100 -660 Descending FlightAware
11:54PM 41.9690 -87.8780 270° West 133 153 700 -720 Descending FlightAware
11:54PM 41.9690 -87.8870 270° West 134 154 600 -180 Descending FlightAware
11:54PM 41.9690 -87.9050 270° West 134 154 600  Level FlightAware
12:00AM 41.9780 -87.8970 33° Northeast 22 25 -120 Descending FlightAware